El Vigia, Venezuela
Current Conditions -  °F | °C
As of 2:00 AM on Friday 24 Oct 2014 (Local Time) from SVVG Reporting Station
Scattered Clouds Scattered Clouds  
Wind Chill: 79°   Ceiling: Unl
Heat Index: 83°   Visibility: 6mi
Dew Point: 77°   Wind: 3mph
Humidity: 94%   Direction: 200°SSW
Pressure: 29.77"   Gusts: NA
Location:  8.63°N, 71.65°W
Report Text: SVVG 240600Z 20003KT 9999 SCT017 SCT100 26/25 Q1008
Loading
Personal Weather Stations






























Interactive Weather Map
Tropical Storm Tracking
New forecast layout! Learn more

10-Day Weather Forecast

Advertisements
Track Severe Weather on mobile